createdAt,value
2022-08-24T00:01:29.309Z,4.30
2022-08-24T00:04:01.380Z,4.90
2022-08-24T00:06:29.804Z,4.57
2022-08-24T00:08:59.262Z,4.07
2022-08-24T00:11:27.847Z,3.65
2022-08-24T00:13:55.680Z,5.00
2022-08-24T00:16:24.148Z,3.53
2022-08-24T00:18:51.834Z,4.12
2022-08-24T00:21:20.390Z,4.55
2022-08-24T00:23:50.558Z,4.40
2022-08-24T00:26:28.599Z,4.65
2022-08-24T00:28:57.205Z,4.07
2022-08-24T00:31:24.986Z,5.18
2022-08-24T00:33:52.706Z,4.80
2022-08-24T00:36:22.727Z,4.65
2022-08-24T00:38:50.796Z,4.05
2022-08-24T00:41:18.575Z,4.20
2022-08-24T00:43:59.352Z,4.75
2022-08-24T00:46:46.442Z,5.15
2022-08-24T00:49:34.758Z,4.93
2022-08-24T00:52:09.545Z,4.20
2022-08-24T00:54:46.122Z,5.28
2022-08-24T00:57:19.217Z,5.22
2022-08-24T00:59:53.554Z,4.12
2022-08-24T01:02:33.556Z,4.40
2022-08-24T01:05:04.991Z,4.12
2022-08-24T01:07:34.349Z,4.10
2022-08-24T01:10:06.581Z,6.18
2022-08-24T01:12:37.335Z,5.40
2022-08-24T01:15:07.865Z,4.22
2022-08-24T01:17:56.219Z,4.55
2022-08-24T01:20:27.353Z,4.35
2022-08-24T01:23:11.932Z,5.75
2022-08-24T01:25:43.114Z,4.82
2022-08-24T01:28:23.776Z,4.90
2022-08-24T01:30:55.838Z,5.07
2022-08-24T01:33:27.346Z,10.25
2022-08-24T01:36:10.681Z,4.07
2022-08-24T01:38:38.420Z,4.65
2022-08-24T01:41:06.300Z,4.50
2022-08-24T01:43:36.935Z,4.47
2022-08-24T01:46:05.433Z,5.12
2022-08-24T01:48:33.221Z,5.18
2022-08-24T01:51:01.150Z,4.60
2022-08-24T01:53:29.231Z,5.50
2022-08-24T01:55:56.963Z,4.43
2022-08-24T01:58:25.754Z,4.18
2022-08-24T02:00:53.437Z,5.45
2022-08-24T02:03:21.565Z,4.25
2022-08-24T02:05:57.199Z,5.47
2022-08-24T02:08:24.864Z,4.85
2022-08-24T02:10:56.460Z,4.82
2022-08-24T02:13:24.876Z,5.50
2022-08-24T02:15:52.636Z,4.90
2022-08-24T02:18:20.652Z,6.47
2022-08-24T02:20:48.337Z,4.57
2022-08-24T02:23:16.036Z,5.40
2022-08-24T02:25:43.740Z,5.15
2022-08-24T02:28:11.575Z,5.05
2022-08-24T02:30:41.341Z,5.65
2022-08-24T02:33:09.430Z,5.93
2022-08-24T02:35:37.356Z,5.90
2022-08-24T02:38:05.198Z,5.65
2022-08-24T02:40:33.475Z,6.45
2022-08-24T02:43:01.117Z,5.57
2022-08-24T02:45:28.956Z,5.75
2022-08-24T02:47:56.654Z,5.87
2022-08-24T02:50:24.697Z,6.85
2022-08-24T02:52:52.397Z,6.65
2022-08-24T02:55:20.690Z,5.87
2022-08-24T02:57:49.421Z,4.82
2022-08-24T03:00:20.094Z,5.25
2022-08-24T03:02:47.901Z,5.40
2022-08-24T03:05:16.465Z,5.78
2022-08-24T03:07:44.879Z,5.22
2022-08-24T03:10:12.875Z,5.57
2022-08-24T03:12:40.878Z,6.35
2022-08-24T03:15:12.464Z,7.35
2022-08-24T03:17:41.120Z,5.18
2022-08-24T03:20:14.959Z,5.28
2022-08-24T03:22:43.420Z,5.55
2022-08-24T03:25:12.423Z,7.57
2022-08-24T03:27:40.646Z,5.20
2022-08-24T03:30:11.418Z,6.45
2022-08-24T03:32:39.824Z,6.80
2022-08-24T03:35:08.529Z,5.05
2022-08-24T03:37:36.209Z,8.07
2022-08-24T03:40:04.705Z,6.85
2022-08-24T03:42:33.185Z,6.37
2022-08-24T03:45:01.011Z,5.90
2022-08-24T03:47:28.742Z,7.50
2022-08-24T03:49:57.410Z,7.45
2022-08-24T03:52:25.151Z,7.18
2022-08-24T03:54:53.877Z,5.85
2022-08-24T03:57:21.583Z,5.80
2022-08-24T03:59:49.308Z,6.68
2022-08-24T04:02:17.043Z,6.57
2022-08-24T04:04:44.857Z,5.72
2022-08-24T04:07:12.706Z,6.90
2022-08-24T04:09:40.425Z,6.35
2022-08-24T04:12:08.269Z,6.20
2022-08-24T04:14:36.437Z,6.60
2022-08-24T04:17:05.637Z,6.10
2022-08-24T04:19:34.750Z,6.12
2022-08-24T04:22:02.465Z,9.25
2022-08-24T04:24:30.489Z,6.82
2022-08-24T04:26:58.202Z,5.45
2022-08-24T04:29:26.680Z,5.93
2022-08-24T04:31:54.634Z,6.32
2022-08-24T04:34:22.529Z,6.80
2022-08-24T04:36:50.253Z,6.28
2022-08-24T04:39:17.934Z,6.32
2022-08-24T04:41:45.650Z,6.32
2022-08-24T04:44:14.059Z,6.43
2022-08-24T04:46:41.825Z,6.00
2022-08-24T04:49:09.633Z,6.50
2022-08-24T04:51:37.707Z,5.80
2022-08-24T04:54:07.434Z,6.43
2022-08-24T04:56:36.081Z,5.72
2022-08-24T04:59:05.860Z,6.32
2022-08-24T05:01:34.753Z,5.28
2022-08-24T05:04:02.811Z,5.70
2022-08-24T05:06:33.658Z,5.85
2022-08-24T05:09:03.211Z,7.57
2022-08-24T05:11:31.099Z,6.00
2022-08-24T05:13:59.169Z,6.07
2022-08-24T05:16:30.504Z,6.68
2022-08-24T05:18:59.517Z,5.97
2022-08-24T05:21:29.434Z,6.72
2022-08-24T05:23:57.138Z,5.72
2022-08-24T05:26:27.929Z,5.93
2022-08-24T05:28:57.786Z,7.55
2022-08-24T05:31:28.834Z,5.90
2022-08-24T05:33:56.767Z,6.05
2022-08-24T05:36:33.761Z,8.00
2022-08-24T05:39:10.995Z,6.22
2022-08-24T05:41:44.035Z,6.40
2022-08-24T05:44:17.004Z,8.82
2022-08-24T05:46:45.814Z,8.45
2022-08-24T05:49:13.844Z,6.72
2022-08-24T05:51:43.734Z,6.50
2022-08-24T05:54:14.719Z,6.43
2022-08-24T05:56:42.876Z,7.62
2022-08-24T05:59:10.698Z,6.95
2022-08-24T06:01:43.365Z,6.43
2022-08-24T06:04:13.984Z,7.78
2022-08-24T06:06:43.206Z,7.78
2022-08-24T06:09:12.897Z,5.93
2022-08-24T06:11:41.971Z,5.90
2022-08-24T06:14:12.612Z,5.87
2022-08-24T06:16:43.758Z,7.53
2022-08-24T06:19:14.431Z,7.97
2022-08-24T06:21:42.842Z,9.40
2022-08-24T06:24:10.742Z,5.93
2022-08-24T06:26:56.980Z,7.40
2022-08-24T06:29:24.684Z,6.15
2022-08-24T06:31:54.830Z,6.43
2022-08-24T06:34:26.656Z,6.50
2022-08-24T06:36:54.303Z,6.90
2022-08-24T06:39:22.087Z,6.45
2022-08-24T06:41:49.790Z,5.82
2022-08-24T06:44:17.606Z,5.78
2022-08-24T06:46:45.436Z,5.50
2022-08-24T06:49:13.389Z,5.70
2022-08-24T06:51:41.154Z,4.90
2022-08-24T06:54:09.641Z,4.90
2022-08-24T06:56:39.185Z,4.70
2022-08-24T06:59:07.293Z,3.87
2022-08-24T07:01:35.161Z,4.25
2022-08-24T07:04:03.027Z,3.87
2022-08-24T07:06:30.834Z,3.83
2022-08-24T07:08:58.556Z,5.40
2022-08-24T07:11:26.663Z,3.58
2022-08-24T07:13:54.397Z,3.95
2022-08-24T07:16:22.653Z,4.30
2022-08-24T07:18:50.746Z,4.82
2022-08-24T07:21:20.551Z,9.05
2022-08-24T07:23:56.207Z,5.78
2022-08-24T07:26:26.650Z,3.60
2022-08-24T07:29:02.196Z,5.10
2022-08-24T07:31:34.709Z,5.22
2022-08-24T07:34:04.709Z,4.82
2022-08-24T07:36:32.566Z,4.18
2022-08-24T07:39:00.398Z,3.22
2022-08-24T07:44:16.743Z,3.20
2022-08-24T07:46:44.749Z,3.22
2022-08-24T07:49:33.023Z,4.05
2022-08-24T07:52:01.853Z,3.37
2022-08-24T07:54:32.644Z,3.95
2022-08-24T07:57:03.294Z,4.30
2022-08-24T07:59:31.227Z,3.10
2022-08-24T08:02:00.285Z,4.30
2022-08-24T08:04:28.155Z,2.95
2022-08-24T08:09:29.129Z,3.15
2022-08-24T08:11:56.894Z,3.53
2022-08-24T08:14:24.601Z,3.00
2022-08-24T08:16:52.523Z,3.30
2022-08-24T08:19:20.552Z,2.92
2022-08-24T08:22:10.239Z,4.30
2022-08-24T08:24:44.801Z,3.58
2022-08-24T08:27:14.020Z,3.28
2022-08-24T08:29:42.074Z,9.05
2022-08-24T08:32:13.236Z,4.15
2022-08-24T08:34:40.938Z,3.85
2022-08-24T08:37:08.846Z,3.42
2022-08-24T08:39:37.006Z,2.90
2022-08-24T08:42:26.333Z,3.62
2022-08-24T08:45:37.223Z,4.72
2022-08-24T08:48:19.837Z,5.47
2022-08-24T08:51:26.617Z,3.75
2022-08-24T08:54:06.314Z,3.60
2022-08-24T08:56:58.583Z,3.53
2022-08-24T08:59:39.971Z,4.32
2022-08-24T09:02:35.706Z,3.83
2022-08-24T09:05:16.891Z,3.03
2022-08-24T09:07:47.353Z,3.10
2022-08-24T09:10:42.032Z,3.50
2022-08-24T09:13:31.550Z,3.12
2022-08-24T09:15:59.837Z,2.78
2022-08-24T09:18:42.785Z,4.00
2022-08-24T09:21:10.881Z,3.62
2022-08-24T09:23:55.176Z,4.18
2022-08-24T09:26:27.031Z,2.83
2022-08-24T09:29:13.419Z,3.67
2022-08-24T09:31:59.425Z,3.25
2022-08-24T09:34:27.030Z,4.43
2022-08-24T09:36:56.822Z,3.65
2022-08-24T09:39:57.869Z,3.00
2022-08-24T09:42:50.364Z,3.33
2022-08-24T09:45:38.581Z,3.20
2022-08-24T09:48:41.328Z,3.28
2022-08-24T09:51:44.922Z,4.10
2022-08-24T09:54:48.551Z,2.85
2022-08-24T09:57:50.404Z,3.10
2022-08-24T10:00:28.681Z,3.00
2022-08-24T10:03:00.551Z,3.87
2022-08-24T10:05:49.690Z,2.92
2022-08-24T10:08:40.761Z,6.57
2022-08-24T10:11:13.334Z,2.72
2022-08-24T10:14:08.082Z,2.90
2022-08-24T10:16:50.827Z,2.87
2022-08-24T10:20:13.616Z,4.47
2022-08-24T10:22:53.228Z,3.33
2022-08-24T10:25:42.011Z,3.03
2022-08-24T10:28:38.893Z,2.92
2022-08-24T10:31:28.206Z,2.85
2022-08-24T10:34:31.316Z,2.10
2022-08-24T10:37:17.297Z,2.47
2022-08-24T10:40:15.974Z,2.25
2022-08-24T10:43:29.641Z,2.60
2022-08-24T10:46:00.194Z,2.65
2022-08-24T10:48:33.377Z,3.12
2022-08-24T10:51:44.249Z,3.00
2022-08-24T10:54:14.351Z,2.08
2022-08-24T10:57:11.909Z,2.70
2022-08-24T10:59:56.793Z,2.08
2022-08-24T11:02:30.604Z,2.05
2022-08-24T11:05:03.060Z,2.62
2022-08-24T11:07:30.850Z,3.97
2022-08-24T11:10:01.154Z,1.92
2022-08-24T11:12:37.706Z,1.75
2022-08-24T11:15:23.273Z,3.17
2022-08-24T11:18:05.174Z,2.10
2022-08-24T11:20:34.841Z,2.67
2022-08-24T11:23:18.996Z,2.05
2022-08-24T11:26:05.084Z,1.73
2022-08-24T11:28:58.644Z,2.15
2022-08-24T11:31:35.578Z,1.65
2022-08-24T11:34:14.886Z,2.42
2022-08-24T11:36:43.400Z,3.37
2022-08-24T11:39:25.120Z,1.67
2022-08-24T11:42:15.837Z,1.95
2022-08-24T11:45:10.784Z,1.65
2022-08-24T11:48:05.422Z,2.15
2022-08-24T11:50:42.074Z,1.77
2022-08-24T11:53:15.081Z,2.12
2022-08-24T11:56:05.698Z,1.87
2022-08-24T11:58:59.282Z,1.15
2022-08-24T12:01:52.439Z,2.45
2022-08-24T12:04:26.067Z,1.77
2022-08-24T12:07:11.823Z,2.00
2022-08-24T12:09:48.009Z,1.50
2022-08-24T12:12:36.453Z,1.42
2022-08-24T12:15:13.215Z,1.40
2022-08-24T12:17:56.926Z,2.87
2022-08-24T12:20:33.517Z,2.72
2022-08-24T12:23:18.215Z,2.03
2022-08-24T12:26:02.963Z,7.20
2022-08-24T12:28:45.351Z,1.37
2022-08-24T12:31:44.827Z,1.60
2022-08-24T12:34:19.939Z,1.62
2022-08-24T12:37:16.181Z,2.28
2022-08-24T12:39:53.346Z,2.12
2022-08-24T12:42:35.298Z,2.22
2022-08-24T12:45:12.692Z,2.40
2022-08-24T12:47:52.161Z,2.45
2022-08-24T12:50:36.505Z,3.70
2022-08-24T12:53:04.349Z,1.30
2022-08-24T12:55:52.534Z,1.37
2022-08-24T12:58:57.451Z,1.20
2022-08-24T13:01:29.596Z,2.17
2022-08-24T13:04:09.288Z,3.12
2022-08-24T13:07:06.017Z,2.53
2022-08-24T13:09:46.083Z,1.33
2022-08-24T13:12:34.936Z,1.62
2022-08-24T13:15:24.482Z,1.80
2022-08-24T13:18:00.232Z,1.48
2022-08-24T13:20:52.475Z,1.23
2022-08-24T13:23:22.288Z,1.33
2022-08-24T13:25:52.465Z,2.72
2022-08-24T13:28:22.963Z,2.12
2022-08-24T13:31:18.497Z,2.17
2022-08-24T13:34:05.324Z,1.50
2022-08-24T13:36:33.521Z,3.80
2022-08-24T13:39:21.688Z,1.60
2022-08-24T13:42:13.748Z,2.62
2022-08-24T13:44:47.527Z,1.48
2022-08-24T13:47:18.190Z,6.12
2022-08-24T13:50:03.248Z,1.92
2022-08-24T13:53:01.353Z,1.40
2022-08-24T13:55:46.210Z,1.42
2022-08-24T13:58:35.946Z,2.42
2022-08-24T14:01:06.599Z,2.85
2022-08-24T14:03:57.405Z,1.48
2022-08-24T14:07:01.504Z,4.12
2022-08-24T14:09:49.661Z,1.67
2022-08-24T14:12:26.538Z,1.33
2022-08-24T14:15:20.557Z,1.55
2022-08-24T14:18:00.433Z,1.70
2022-08-24T14:20:49.943Z,2.05
2022-08-24T14:23:46.084Z,1.45
2022-08-24T14:26:39.342Z,3.12
2022-08-24T14:29:38.002Z,1.33
2022-08-24T14:32:08.678Z,1.42
2022-08-24T14:34:43.092Z,3.83
2022-08-24T14:37:19.697Z,1.83
2022-08-24T14:39:56.199Z,1.70
2022-08-24T14:42:47.268Z,1.80
2022-08-24T14:45:39.066Z,1.30
2022-08-24T14:48:18.761Z,1.55
2022-08-24T14:51:11.489Z,2.47
2022-08-24T14:54:08.749Z,1.80
2022-08-24T14:57:19.356Z,2.97
2022-08-24T15:00:13.523Z,2.17
2022-08-24T15:02:56.305Z,4.03
2022-08-24T15:05:33.010Z,4.53
2022-08-24T15:08:16.254Z,3.60
2022-08-24T15:11:16.431Z,3.95
2022-08-24T15:13:56.226Z,2.80
2022-08-24T15:16:35.079Z,2.00
2022-08-24T15:19:23.018Z,1.62
2022-08-24T15:22:16.121Z,2.83
2022-08-24T15:24:53.490Z,3.10
2022-08-24T15:27:52.204Z,1.83
2022-08-24T15:30:29.081Z,2.20
2022-08-24T15:33:20.175Z,1.77
2022-08-24T15:36:04.389Z,2.22
2022-08-24T15:38:33.709Z,1.58
2022-08-24T15:41:09.923Z,1.60
2022-08-24T15:44:01.010Z,1.80
2022-08-24T15:46:46.766Z,1.70
2022-08-24T15:49:23.177Z,3.05
2022-08-24T15:52:03.423Z,1.83
2022-08-24T15:54:59.168Z,1.52
2022-08-24T15:57:28.783Z,2.45
2022-08-24T16:00:09.247Z,1.73
2022-08-24T16:02:39.714Z,1.70
2022-08-24T16:05:14.435Z,1.62
2022-08-24T16:08:05.477Z,1.98
2022-08-24T16:10:45.236Z,2.15
2022-08-24T16:13:18.844Z,1.65
2022-08-24T16:16:16.304Z,2.47
2022-08-24T16:18:53.698Z,1.98
2022-08-24T16:21:40.673Z,2.72
2022-08-24T16:24:13.717Z,2.22
2022-08-24T16:26:47.416Z,1.70
2022-08-24T16:29:38.849Z,1.92
2022-08-24T16:32:22.979Z,1.83
2022-08-24T16:35:02.257Z,1.90
2022-08-24T16:37:30.017Z,2.03
2022-08-24T16:39:57.656Z,2.05
2022-08-24T16:42:28.491Z,3.05
2022-08-24T16:44:57.488Z,2.58
2022-08-24T16:47:26.109Z,1.67
2022-08-24T16:49:53.839Z,2.62
2022-08-24T16:52:22.220Z,2.35
2022-08-24T16:54:50.435Z,2.60
2022-08-24T16:57:29.122Z,3.05
2022-08-24T16:59:57.024Z,2.70
2022-08-24T17:02:26.786Z,2.08
2022-08-24T17:04:55.772Z,2.10
2022-08-24T17:07:27.380Z,2.40
2022-08-24T17:09:56.127Z,2.15
2022-08-24T17:12:25.082Z,3.05
2022-08-24T17:14:52.833Z,2.17
2022-08-24T17:17:23.265Z,2.00
2022-08-24T17:19:54.494Z,2.47
2022-08-24T17:22:24.259Z,3.05
2022-08-24T17:24:52.301Z,2.45
2022-08-24T17:27:23.963Z,5.22
2022-08-24T17:29:51.829Z,2.10
2022-08-24T17:32:19.624Z,2.35
2022-08-24T17:34:47.418Z,2.15
2022-08-24T17:37:15.202Z,1.92
2022-08-24T17:39:42.901Z,1.87
2022-08-24T17:42:33.647Z,2.28
2022-08-24T17:44:58.381Z,2.92
2022-08-24T17:47:26.216Z,2.95
2022-08-24T17:49:53.944Z,2.05
2022-08-24T17:52:21.698Z,2.87
2022-08-24T17:54:49.470Z,2.50
2022-08-24T17:57:17.295Z,1.87
2022-08-24T17:59:45.828Z,2.92
2022-08-24T18:02:13.696Z,2.03
2022-08-24T18:04:41.990Z,2.42
2022-08-24T18:07:13.615Z,2.75
2022-08-24T18:09:49.524Z,2.30
2022-08-24T18:12:20.174Z,2.15
2022-08-24T18:14:47.986Z,2.60
2022-08-24T18:17:22.704Z,3.05
2022-08-24T18:19:53.663Z,2.15
2022-08-24T18:22:21.554Z,2.30
2022-08-24T18:24:49.255Z,3.97
2022-08-24T18:27:25.781Z,2.70
2022-08-24T18:30:00.183Z,3.92
2022-08-24T18:32:31.199Z,2.70
2022-08-24T18:35:00.023Z,2.47
2022-08-24T18:37:27.672Z,2.42
2022-08-24T18:39:55.448Z,3.58
2022-08-24T18:42:26.423Z,4.03
2022-08-24T18:44:55.414Z,4.07
2022-08-24T18:47:23.143Z,5.37
2022-08-24T18:49:50.890Z,5.60
2022-08-24T18:52:20.089Z,3.17
2022-08-24T18:54:50.212Z,2.87
2022-08-24T18:57:19.584Z,4.57
2022-08-24T18:59:47.909Z,2.72
2022-08-24T19:02:32.308Z,3.85
2022-08-24T19:05:12.548Z,2.30
2022-08-24T19:07:42.805Z,3.58
2022-08-24T19:10:11.952Z,4.70
2022-08-24T19:12:55.981Z,2.50
2022-08-24T19:15:35.829Z,2.53
2022-08-24T19:18:07.740Z,3.22
2022-08-24T19:20:36.652Z,2.30
2022-08-24T19:23:15.603Z,2.83
2022-08-24T19:25:46.337Z,2.58
2022-08-24T19:28:14.534Z,2.92
2022-08-24T19:30:43.500Z,2.70
2022-08-24T19:33:14.348Z,4.45
2022-08-24T19:35:42.753Z,2.37
2022-08-24T19:38:10.462Z,2.72
2022-08-24T19:40:39.171Z,3.22
2022-08-24T19:43:08.511Z,3.00
2022-08-24T19:45:56.365Z,4.28
2022-08-24T19:48:25.575Z,3.85
2022-08-24T19:50:57.429Z,2.62
2022-08-24T19:53:26.606Z,3.55
2022-08-24T19:55:54.252Z,3.90
2022-08-24T19:58:30.530Z,2.42
2022-08-24T20:01:03.866Z,2.12
2022-08-24T20:03:31.606Z,2.53
2022-08-24T20:05:59.347Z,2.87
2022-08-24T20:08:27.021Z,2.72
2022-08-24T20:10:59.696Z,2.95
2022-08-24T20:13:27.925Z,3.40
2022-08-24T20:15:57.536Z,3.47
2022-08-24T20:18:31.785Z,2.90
2022-08-24T20:20:59.905Z,2.80
2022-08-24T20:23:28.518Z,3.08
2022-08-24T20:25:58.736Z,2.60
2022-08-24T20:28:38.172Z,2.80
2022-08-24T20:31:06.632Z,3.72
2022-08-24T20:33:34.385Z,2.78
2022-08-24T20:36:02.238Z,5.97
2022-08-24T20:38:31.895Z,3.85
2022-08-24T20:41:00.707Z,3.10
2022-08-24T20:43:29.410Z,2.60
2022-08-24T20:45:57.636Z,3.55
2022-08-24T20:48:31.469Z,2.92
2022-08-24T20:51:00.948Z,2.72
2022-08-24T20:53:28.709Z,3.83
2022-08-24T20:55:58.387Z,2.60
2022-08-24T20:58:26.623Z,2.92
2022-08-24T21:00:54.399Z,2.50
2022-08-24T21:03:22.490Z,2.60
2022-08-24T21:05:53.424Z,2.90
2022-08-24T21:08:21.277Z,2.60
2022-08-24T21:10:49.536Z,2.72
2022-08-24T21:13:17.342Z,4.50
2022-08-24T21:15:45.593Z,3.12
2022-08-24T21:18:13.327Z,3.22
2022-08-24T21:20:54.717Z,2.80
2022-08-24T21:23:31.269Z,2.95
2022-08-24T21:25:59.767Z,2.75
2022-08-24T21:28:27.600Z,3.97
2022-08-24T21:30:55.391Z,3.28
2022-08-24T21:33:41.775Z,3.00
2022-08-24T21:36:10.042Z,5.18
2022-08-24T21:38:38.205Z,3.28
2022-08-24T21:41:06.910Z,2.60
2022-08-24T21:43:34.839Z,2.72
2022-08-24T21:46:02.574Z,2.97
2022-08-24T21:48:30.250Z,3.08
2022-08-24T21:50:57.921Z,3.05
2022-08-24T21:53:28.475Z,3.50
2022-08-24T21:55:57.077Z,2.78
2022-08-24T21:58:25.456Z,2.37
2022-08-24T22:00:53.269Z,2.75
2022-08-24T22:03:26.728Z,2.53
2022-08-24T22:05:59.635Z,3.40
2022-08-24T22:08:28.008Z,3.87
2022-08-24T22:10:56.512Z,2.53
2022-08-24T22:13:24.175Z,2.95
2022-08-24T22:15:52.361Z,3.03
2022-08-24T22:18:20.083Z,2.45
2022-08-24T22:20:47.850Z,3.35
2022-08-24T22:23:15.600Z,3.00
2022-08-24T22:25:43.323Z,2.83
2022-08-24T22:28:11.223Z,3.62
2022-08-24T22:30:38.890Z,3.30
2022-08-24T22:33:07.074Z,5.53
2022-08-24T22:35:44.755Z,4.12
2022-08-24T22:38:13.624Z,3.22
2022-08-24T22:40:44.144Z,2.85
2022-08-24T22:43:13.318Z,4.62
2022-08-24T22:45:41.025Z,4.07
2022-08-24T22:48:08.733Z,3.85
2022-08-24T22:50:36.477Z,3.40
2022-08-24T22:53:04.757Z,3.05
2022-08-24T22:55:33.660Z,4.25
2022-08-24T22:58:01.411Z,3.28
2022-08-24T23:00:29.082Z,3.08
2022-08-24T23:02:56.737Z,3.33
2022-08-24T23:05:24.487Z,3.47
2022-08-24T23:07:52.165Z,4.40
2022-08-24T23:10:21.264Z,3.45
2022-08-24T23:12:49.059Z,3.50
2022-08-24T23:15:16.853Z,3.20
2022-08-24T23:17:44.727Z,3.30
2022-08-24T23:20:12.689Z,3.55
2022-08-24T23:22:41.874Z,2.78
2022-08-24T23:25:12.745Z,2.80
2022-08-24T23:27:42.946Z,3.25
2022-08-24T23:30:14.868Z,3.78
2022-08-24T23:32:44.122Z,3.00
2022-08-24T23:35:11.957Z,2.97
2022-08-24T23:37:39.803Z,3.47
2022-08-24T23:40:08.268Z,3.50
2022-08-24T23:42:36.037Z,3.40
2022-08-24T23:45:03.843Z,2.97
2022-08-24T23:47:35.913Z,3.25
2022-08-24T23:50:03.898Z,3.15
2022-08-24T23:52:40.300Z,3.87
2022-08-24T23:55:20.063Z,3.47
2022-08-24T23:57:48.495Z,4.22
